Terminal Aerodrome Forecast
Issued by NWS Charleston, WV

Current Version | Previous Version | Graphics & Text | Print | Product List | Glossary On
Versions: 1 2 3 4 5 6 7 8 9 10 11 12 13 14 15 16 17 18 19 20 21 22 23 24 25
000
FTUS41 KRLX 171100
TAFEKN
TAF
KEKN 171124Z 1712/1812 00000KT 4SM BR SCT008 BKN015
      TEMPO 1712/1713 BKN008
     FM171400 VRB03KT P6SM BKN020
     FM171600 27004KT P6SM VCTS BKN035CB
     FM180400 VRB03KT P6SM BKN025=

USA.gov is the U.S. government's official web portal to all federal, state and local government web resources and services.